createdAt,value
2018-07-01T00:00:43.368Z,0.00
2018-07-01T00:01:43.395Z,0.00
2018-07-01T00:02:43.321Z,0.00
2018-07-01T00:03:43.299Z,0.00
2018-07-01T00:04:43.257Z,0.00
2018-07-01T00:05:43.243Z,0.00
2018-07-01T00:06:43.238Z,0.00
2018-07-01T00:07:43.819Z,0.00
2018-07-01T00:08:43.147Z,0.00
2018-07-01T00:09:43.117Z,0.00
2018-07-01T00:10:43.170Z,0.00
2018-07-01T00:11:43.061Z,0.00
2018-07-01T00:12:43.076Z,0.00
2018-07-01T00:13:43.051Z,0.00
2018-07-01T00:14:42.976Z,0.00
2018-07-01T00:15:42.954Z,0.00
2018-07-01T00:16:42.921Z,0.00
2018-07-01T00:17:42.891Z,0.00
2018-07-01T00:18:42.909Z,0.00
2018-07-01T00:19:42.841Z,0.00
2018-07-01T00:20:42.814Z,0.00
2018-07-01T00:21:42.784Z,0.00
2018-07-01T00:22:42.771Z,0.00
2018-07-01T00:23:42.766Z,0.00
2018-07-01T00:24:42.738Z,0.00
2018-07-01T00:25:42.690Z,0.00
2018-07-01T00:26:42.642Z,0.00
2018-07-01T00:27:42.610Z,0.00
2018-07-01T00:28:42.628Z,0.00
2018-07-01T00:29:42.606Z,0.00
2018-07-01T00:30:42.532Z,0.00
2018-07-01T00:31:42.499Z,0.00
2018-07-01T00:32:42.470Z,0.00
2018-07-01T00:33:42.440Z,0.00
2018-07-01T00:34:42.467Z,0.00
2018-07-01T00:35:42.382Z,0.00
2018-07-01T00:36:42.357Z,0.00
2018-07-01T00:37:42.329Z,0.00
2018-07-01T00:38:42.919Z,0.00
2018-07-01T00:39:42.326Z,0.00
2018-07-01T00:40:42.247Z,0.00
2018-07-01T00:41:42.217Z,0.00
2018-07-01T00:42:42.186Z,0.00
2018-07-01T00:43:42.159Z,0.00
2018-07-01T00:44:42.182Z,0.00
2018-07-01T00:45:42.102Z,0.00
2018-07-01T00:46:42.074Z,0.00
2018-07-01T00:47:42.088Z,0.00
2018-07-01T00:48:42.016Z,0.00
2018-07-01T00:49:41.992Z,0.00
2018-07-01T00:50:41.976Z,0.00
2018-07-01T00:51:41.934Z,0.00
2018-07-01T00:52:41.949Z,0.00
2018-07-01T00:53:41.883Z,0.00
2018-07-01T00:54:41.856Z,0.00
2018-07-01T00:55:41.866Z,0.00
2018-07-01T00:56:41.805Z,0.00
2018-07-01T00:57:42.489Z,0.00
2018-07-01T00:58:41.744Z,0.00
2018-07-01T00:59:41.708Z,0.00
2018-07-01T01:00:41.731Z,0.00
2018-07-01T01:01:42.438Z,0.00
2018-07-01T01:02:42.329Z,0.00
2018-07-01T01:03:41.603Z,0.00
2018-07-01T01:04:41.564Z,0.00
2018-07-01T01:05:41.581Z,0.00
2018-07-01T01:06:41.513Z,0.00
2018-07-01T01:07:41.480Z,0.00
2018-07-01T01:08:41.452Z,0.00
2018-07-01T01:09:41.433Z,0.00
2018-07-01T01:10:41.440Z,0.00
2018-07-01T01:11:41.368Z,0.00
2018-07-01T01:12:41.341Z,0.00
2018-07-01T01:13:41.928Z,0.00
2018-07-01T01:14:41.283Z,0.00
2018-07-01T01:15:41.321Z,0.00
2018-07-01T01:16:41.228Z,0.00
2018-07-01T01:17:41.197Z,0.00
2018-07-01T01:18:41.170Z,0.00
2018-07-01T01:19:41.144Z,0.00
2018-07-01T01:20:41.167Z,0.00
2018-07-01T01:21:41.083Z,0.00
2018-07-01T01:22:41.061Z,0.00
2018-07-01T01:23:41.028Z,0.00
2018-07-01T01:24:41.000Z,0.00
2018-07-01T01:25:41.009Z,0.00
2018-07-01T01:26:40.995Z,0.00
2018-07-01T01:27:40.918Z,0.00
2018-07-01T01:28:40.899Z,0.00
2018-07-01T01:29:40.860Z,0.00
2018-07-01T01:30:40.833Z,0.00
2018-07-01T01:31:40.839Z,0.00
2018-07-01T01:32:40.778Z,0.00
2018-07-01T01:33:40.745Z,0.00
2018-07-01T01:34:40.748Z,0.00
2018-07-01T01:35:40.696Z,0.00
2018-07-01T01:36:40.706Z,0.00
2018-07-01T01:37:40.630Z,0.00
2018-07-01T01:38:40.661Z,0.00
2018-07-01T01:39:40.573Z,0.00
2018-07-01T01:40:40.545Z,0.00
2018-07-01T01:41:40.562Z,0.00
2018-07-01T01:42:40.493Z,0.00
2018-07-01T01:43:40.460Z,0.00
2018-07-01T01:44:40.455Z,0.00
2018-07-01T01:45:40.440Z,0.00
2018-07-01T01:46:40.378Z,0.00
2018-07-01T01:47:40.411Z,0.00
2018-07-01T01:48:40.321Z,0.00
2018-07-01T01:49:40.292Z,0.00
2018-07-01T01:50:40.260Z,0.00
2018-07-01T01:51:40.233Z,0.00
2018-07-01T01:52:40.247Z,0.00
2018-07-01T01:53:40.179Z,0.00
2018-07-01T01:54:40.153Z,0.00
2018-07-01T01:55:40.118Z,0.00
2018-07-01T01:56:40.138Z,0.00
2018-07-01T01:57:40.063Z,0.00
2018-07-01T01:58:40.040Z,0.00
2018-07-01T01:59:40.007Z,0.00
2018-07-01T02:00:39.977Z,0.00
2018-07-01T02:01:40.001Z,0.00
2018-07-01T02:02:39.924Z,0.00
2018-07-01T02:03:40.435Z,0.00
2018-07-01T02:04:39.865Z,0.00
2018-07-01T02:05:39.840Z,0.00
2018-07-01T02:06:39.852Z,0.00
2018-07-01T02:07:40.430Z,0.00
2018-07-01T02:08:39.799Z,0.00
2018-07-01T02:09:39.980Z,0.00
2018-07-01T02:10:39.693Z,0.00
2018-07-01T02:11:39.667Z,0.00
2018-07-01T02:12:40.434Z,0.00
2018-07-01T02:13:39.759Z,0.00
2018-07-01T02:14:39.581Z,0.00
2018-07-01T02:15:39.553Z,0.00
2018-07-01T02:16:39.532Z,0.00
2018-07-01T02:17:39.492Z,0.00
2018-07-01T02:18:39.508Z,0.00
2018-07-01T02:19:39.435Z,0.00
2018-07-01T02:20:39.930Z,0.00
2018-07-01T02:21:39.375Z,0.00
2018-07-01T02:22:39.351Z,0.00
2018-07-01T02:23:39.498Z,0.00
2018-07-01T02:24:39.296Z,0.00
2018-07-01T02:25:39.261Z,0.00
2018-07-01T02:26:39.234Z,0.00
2018-07-01T02:27:39.936Z,0.00
2018-07-01T02:28:39.221Z,0.00
2018-07-01T02:29:39.148Z,0.00
2018-07-01T02:30:39.491Z,0.00
2018-07-01T02:31:39.089Z,0.00
2018-07-01T02:32:39.932Z,5.63
2018-07-01T02:33:39.032Z,5.63
2018-07-01T02:34:39.057Z,5.63
2018-07-01T02:35:38.974Z,5.63
2018-07-01T02:36:39.008Z,5.63
2018-07-01T02:37:38.921Z,5.63
2018-07-01T02:38:39.438Z,5.63
2018-07-01T02:39:38.862Z,5.63
2018-07-01T02:40:38.837Z,5.63
2018-07-01T02:41:38.846Z,11.25
2018-07-01T02:42:38.774Z,11.25
2018-07-01T02:43:38.754Z,11.25
2018-07-01T02:44:38.719Z,11.25
2018-07-01T02:45:38.732Z,11.25
2018-07-01T02:46:38.680Z,16.88
2018-07-01T02:47:39.453Z,16.88
2018-07-01T02:48:38.605Z,16.88
2018-07-01T02:49:38.572Z,16.88
2018-07-01T02:50:38.994Z,16.88
2018-07-01T02:51:38.514Z,22.50
2018-07-01T02:52:39.441Z,22.50
2018-07-01T02:53:38.501Z,22.50
2018-07-01T02:54:38.483Z,22.50
2018-07-01T02:55:38.948Z,28.13
2018-07-01T02:56:38.380Z,28.13
2018-07-01T02:57:38.344Z,28.13
2018-07-01T02:58:38.313Z,28.13
2018-07-01T02:59:38.513Z,33.75
2018-07-01T03:00:38.261Z,33.75
2018-07-01T03:01:38.241Z,33.75
2018-07-01T03:02:38.199Z,33.75
2018-07-01T03:03:38.943Z,39.38
2018-07-01T03:04:38.185Z,39.38
2018-07-01T03:05:38.968Z,39.38
2018-07-01T03:06:38.090Z,45.00
2018-07-01T03:07:38.057Z,45.00
2018-07-01T03:08:38.943Z,45.00
2018-07-01T03:09:38.060Z,50.63
2018-07-01T03:10:37.970Z,50.63
2018-07-01T03:11:37.973Z,50.63
2018-07-01T03:12:38.444Z,56.25
2018-07-01T03:13:37.933Z,56.25
2018-07-01T03:14:37.866Z,56.25
2018-07-01T03:15:37.824Z,61.88
2018-07-01T03:16:37.999Z,61.88
2018-07-01T03:17:37.764Z,61.88
2018-07-01T03:18:37.733Z,67.50
2018-07-01T03:19:37.748Z,67.50
2018-07-01T03:20:37.679Z,67.50
2018-07-01T03:21:37.644Z,73.13
2018-07-01T03:22:37.615Z,73.13
2018-07-01T03:23:38.000Z,73.13
2018-07-01T03:24:37.568Z,78.75
2018-07-01T03:25:37.529Z,78.75
2018-07-01T03:26:37.507Z,78.75
2018-07-01T03:27:37.515Z,78.75
2018-07-01T03:28:37.447Z,84.38
2018-07-01T03:29:37.413Z,84.38
2018-07-01T03:30:37.386Z,90.00
2018-07-01T03:31:38.350Z,90.00
2018-07-01T03:32:37.330Z,90.00
2018-07-01T03:33:37.941Z,90.00
2018-07-01T03:34:37.265Z,95.63
2018-07-01T03:35:37.238Z,95.63
2018-07-01T03:36:37.248Z,95.63
2018-07-01T03:37:37.497Z,101.25
2018-07-01T03:38:37.148Z,101.25
2018-07-01T03:39:37.119Z,101.25
2018-07-01T03:40:37.091Z,106.88
2018-07-01T03:41:38.002Z,106.88
2018-07-01T03:42:37.033Z,106.88
2018-07-01T03:43:37.084Z,112.50
2018-07-01T03:44:36.988Z,112.50
2018-07-01T03:45:37.443Z,112.50
2018-07-01T03:46:36.994Z,112.50
2018-07-01T03:47:36.888Z,118.13
2018-07-01T03:48:37.445Z,118.13
2018-07-01T03:49:36.830Z,123.75
2018-07-01T03:50:36.797Z,123.75
2018-07-01T03:51:36.815Z,123.75
2018-07-01T03:52:37.446Z,123.75
2018-07-01T03:53:36.708Z,123.75
2018-07-01T03:54:36.695Z,129.38
2018-07-01T03:55:36.651Z,129.38
2018-07-01T03:56:36.666Z,129.38
2018-07-01T03:57:36.661Z,129.38
2018-07-01T03:58:36.565Z,135.00
2018-07-01T03:59:37.450Z,135.00
2018-07-01T04:00:36.583Z,135.00
2018-07-01T04:01:36.480Z,135.00
2018-07-01T04:02:36.448Z,140.63
2018-07-01T04:03:36.451Z,146.25
2018-07-01T04:04:36.394Z,151.88
2018-07-01T04:05:36.361Z,146.25
2018-07-01T04:06:36.945Z,146.25
2018-07-01T04:07:36.325Z,146.25
2018-07-01T04:08:36.279Z,151.88
2018-07-01T04:09:36.243Z,157.50
2018-07-01T04:10:36.952Z,157.50
2018-07-01T04:11:36.191Z,163.13
2018-07-01T04:12:36.478Z,163.13
2018-07-01T04:13:36.126Z,157.50
2018-07-01T04:14:36.108Z,157.50
2018-07-01T04:15:36.955Z,157.50
2018-07-01T04:16:36.044Z,163.13
2018-07-01T04:17:36.055Z,168.75
2018-07-01T04:18:36.519Z,174.38
2018-07-01T04:19:35.956Z,168.75
2018-07-01T04:20:35.924Z,185.63
2018-07-01T04:21:36.455Z,213.75
2018-07-01T04:22:35.867Z,303.75
2018-07-01T04:23:35.895Z,258.75
2018-07-01T04:24:35.858Z,185.63
2018-07-01T04:25:36.451Z,174.38
2018-07-01T04:26:35.753Z,174.38
2018-07-01T04:27:35.725Z,180.00
2018-07-01T04:28:36.459Z,191.25
2018-07-01T04:29:35.707Z,225.00
2018-07-01T04:30:35.684Z,225.00
2018-07-01T04:31:36.448Z,202.50
2018-07-01T04:32:35.580Z,191.25
2018-07-01T04:33:35.552Z,180.00
2018-07-01T04:34:35.567Z,180.00
2018-07-01T04:35:36.458Z,180.00
2018-07-01T04:36:35.469Z,180.00
2018-07-01T04:37:35.439Z,180.00
2018-07-01T04:38:35.408Z,180.00
2018-07-01T04:39:35.423Z,185.63
2018-07-01T04:40:35.955Z,185.63
2018-07-01T04:41:35.327Z,185.63
2018-07-01T04:42:35.295Z,191.25
2018-07-01T04:43:35.269Z,191.25
2018-07-01T04:44:35.290Z,202.50
2018-07-01T04:45:35.263Z,202.50
2018-07-01T04:46:35.181Z,202.50
2018-07-01T04:47:35.161Z,191.25
2018-07-01T04:48:35.125Z,191.25
2018-07-01T04:49:35.100Z,191.25
2018-07-01T04:50:35.508Z,191.25
2018-07-01T04:51:35.053Z,196.88
2018-07-01T04:52:35.013Z,196.88
2018-07-01T04:53:34.994Z,196.88
2018-07-01T04:54:35.954Z,196.88
2018-07-01T04:55:34.974Z,213.75
2018-07-01T04:56:34.944Z,219.38
2018-07-01T04:57:34.874Z,219.38
2018-07-01T04:58:34.845Z,230.63
2018-07-01T04:59:34.817Z,247.50
2018-07-01T05:00:34.843Z,270.00
2018-07-01T05:01:34.766Z,326.25
2018-07-01T05:02:34.820Z,472.50
2018-07-01T05:03:34.706Z,871.88
2018-07-01T05:04:35.459Z,1158.75
2018-07-01T05:05:34.698Z,1096.88
2018-07-01T05:06:34.687Z,1051.88
2018-07-01T05:07:35.455Z,1074.38
2018-07-01T05:08:34.629Z,916.88
2018-07-01T05:09:34.541Z,669.38
2018-07-01T05:10:36.365Z,613.13
2018-07-01T05:11:34.554Z,776.25
2018-07-01T05:12:34.470Z,1451.25
2018-07-01T05:13:34.984Z,1659.38
2018-07-01T05:14:34.409Z,1406.25
2018-07-01T05:15:34.379Z,1141.88
2018-07-01T05:16:34.404Z,933.75
2018-07-01T05:17:34.376Z,759.38
2018-07-01T05:18:34.302Z,528.75
2018-07-01T05:19:34.965Z,410.63
2018-07-01T05:20:34.254Z,382.50
2018-07-01T05:21:34.958Z,298.13
2018-07-01T05:22:34.224Z,258.75
2018-07-01T05:23:34.491Z,275.63
2018-07-01T05:24:34.151Z,303.75
2018-07-01T05:25:34.130Z,264.38
2018-07-01T05:26:34.960Z,219.38
2018-07-01T05:27:34.146Z,241.88
2018-07-01T05:28:34.116Z,241.88
2018-07-01T05:29:34.965Z,225.00
2018-07-01T05:30:34.006Z,236.25
2018-07-01T05:31:33.978Z,298.13
2018-07-01T05:32:34.460Z,528.75
2018-07-01T05:33:33.982Z,922.50
2018-07-01T05:34:33.950Z,1254.38
2018-07-01T05:35:34.473Z,635.63
2018-07-01T05:36:33.855Z,388.13
2018-07-01T05:37:33.827Z,320.63
2018-07-01T05:38:34.469Z,264.38
2018-07-01T05:39:33.828Z,236.25
2018-07-01T05:40:34.370Z,230.63
2018-07-01T05:41:34.462Z,230.63
2018-07-01T05:42:33.701Z,225.00
2018-07-01T05:43:34.469Z,219.38
2018-07-01T05:44:33.691Z,225.00
2018-07-01T05:45:33.669Z,236.25
2018-07-01T05:46:33.594Z,236.25
2018-07-01T05:47:34.462Z,225.00
2018-07-01T05:48:33.538Z,219.38
2018-07-01T05:49:33.509Z,219.38
2018-07-01T05:50:33.546Z,219.38
2018-07-01T05:51:33.457Z,219.38
2018-07-01T05:52:33.433Z,219.38
2018-07-01T05:53:33.401Z,219.38
2018-07-01T05:54:33.417Z,225.00
2018-07-01T05:55:33.966Z,225.00
2018-07-01T05:56:33.328Z,225.00
2018-07-01T05:57:33.346Z,225.00
2018-07-01T05:58:33.969Z,225.00
2018-07-01T05:59:33.306Z,225.00
2018-07-01T06:00:33.218Z,225.00
2018-07-01T06:01:33.196Z,225.00
2018-07-01T06:02:33.170Z,225.00
2018-07-01T06:03:33.152Z,225.00
2018-07-01T06:04:33.161Z,225.00
2018-07-01T06:05:33.992Z,225.00
2018-07-01T06:06:33.065Z,225.00
2018-07-01T06:07:33.076Z,225.00
2018-07-01T06:08:33.052Z,230.63
2018-07-01T06:09:32.985Z,230.63
2018-07-01T06:10:32.961Z,230.63
2018-07-01T06:11:32.976Z,230.63
2018-07-01T06:12:32.905Z,230.63
2018-07-01T06:13:32.879Z,230.63
2018-07-01T06:14:32.859Z,230.63
2018-07-01T06:15:32.826Z,230.63
2018-07-01T06:16:32.956Z,230.63
2018-07-01T06:17:32.841Z,230.63
2018-07-01T06:18:32.762Z,230.63
2018-07-01T06:19:32.725Z,230.63
2018-07-01T06:20:32.702Z,230.63
2018-07-01T06:21:32.673Z,230.63
2018-07-01T06:22:32.703Z,230.63
2018-07-01T06:23:32.622Z,230.63
2018-07-01T06:24:32.700Z,230.63
2018-07-01T06:25:32.569Z,230.63
2018-07-01T06:26:32.537Z,230.63
2018-07-01T06:27:32.512Z,230.63
2018-07-01T06:28:32.486Z,230.63
2018-07-01T06:29:32.514Z,236.25
2018-07-01T06:30:32.435Z,236.25
2018-07-01T06:31:32.411Z,236.25
2018-07-01T06:32:32.389Z,236.25
2018-07-01T06:33:32.354Z,236.25
2018-07-01T06:34:32.385Z,236.25
2018-07-01T06:35:32.305Z,236.25
2018-07-01T06:36:32.278Z,236.25
2018-07-01T06:37:32.252Z,236.25
2018-07-01T06:38:32.239Z,236.25
2018-07-01T06:39:32.259Z,236.25
2018-07-01T06:40:32.178Z,236.25
2018-07-01T06:41:32.152Z,236.25
2018-07-01T06:42:32.137Z,236.25
2018-07-01T06:43:32.099Z,236.25
2018-07-01T06:44:32.544Z,236.25
2018-07-01T06:45:32.065Z,236.25
2018-07-01T06:46:32.018Z,236.25
2018-07-01T06:47:31.996Z,236.25
2018-07-01T06:48:31.965Z,236.25
2018-07-01T06:49:32.097Z,236.25
2018-07-01T06:50:31.913Z,236.25
2018-07-01T06:51:31.889Z,236.25
2018-07-01T06:52:31.866Z,236.25
2018-07-01T06:53:31.838Z,236.25
2018-07-01T06:54:32.154Z,241.88
2018-07-01T06:55:31.787Z,241.88
2018-07-01T06:56:31.796Z,241.88
2018-07-01T06:57:31.739Z,241.88
2018-07-01T06:58:31.728Z,241.88
2018-07-01T06:59:32.035Z,241.88
2018-07-01T07:00:31.660Z,241.88
2018-07-01T07:01:31.636Z,241.88
2018-07-01T07:02:31.713Z,241.88
2018-07-01T07:03:31.578Z,241.88
2018-07-01T07:04:32.483Z,241.88
2018-07-01T07:05:31.530Z,241.88
2018-07-01T07:06:31.510Z,241.88
2018-07-01T07:07:31.524Z,241.88
2018-07-01T07:08:31.459Z,241.88
2018-07-01T07:09:31.537Z,241.88
2018-07-01T07:10:31.437Z,241.88
2018-07-01T07:11:31.406Z,247.50
2018-07-01T07:12:31.359Z,247.50
2018-07-01T07:13:31.328Z,247.50
2018-07-01T07:14:31.533Z,253.13
2018-07-01T07:15:31.277Z,253.13
2018-07-01T07:16:31.292Z,258.75
2018-07-01T07:17:31.225Z,258.75
2018-07-01T07:18:31.196Z,258.75
2018-07-01T07:19:31.981Z,258.75
2018-07-01T07:20:31.148Z,253.13
2018-07-01T07:21:31.182Z,253.13
2018-07-01T07:22:31.134Z,253.13
2018-07-01T07:23:31.082Z,264.38
2018-07-01T07:24:31.060Z,270.00
2018-07-01T07:25:31.076Z,275.63
2018-07-01T07:26:30.998Z,281.25
2018-07-01T07:27:31.053Z,264.38
2018-07-01T07:28:30.947Z,247.50
2018-07-01T07:29:30.920Z,275.63
2018-07-01T07:30:30.898Z,286.88
2018-07-01T07:31:30.876Z,292.50
2018-07-01T07:32:30.890Z,315.00
2018-07-01T07:33:30.819Z,337.50
2018-07-01T07:34:30.794Z,365.63
2018-07-01T07:35:30.816Z,399.38
2018-07-01T07:36:30.792Z,455.63
2018-07-01T07:37:30.779Z,540.00
2018-07-01T07:38:30.696Z,573.75
2018-07-01T07:39:30.670Z,556.88
2018-07-01T07:40:30.647Z,511.88
2018-07-01T07:41:30.623Z,495.00
2018-07-01T07:42:31.046Z,551.25
2018-07-01T07:43:30.583Z,590.63
2018-07-01T07:44:30.603Z,540.00
2018-07-01T07:45:30.524Z,551.25
2018-07-01T07:46:30.506Z,562.50
2018-07-01T07:47:30.474Z,489.38
2018-07-01T07:48:30.456Z,444.38
2018-07-01T07:49:30.481Z,455.63
2018-07-01T07:50:30.406Z,545.63
2018-07-01T07:51:30.407Z,601.88
2018-07-01T07:52:30.360Z,630.00
2018-07-01T07:53:30.331Z,618.75
2018-07-01T07:54:30.360Z,573.75
2018-07-01T07:55:30.331Z,568.13
2018-07-01T07:56:30.271Z,562.50
2018-07-01T07:57:30.282Z,579.38
2018-07-01T07:58:30.217Z,556.88
2018-07-01T07:59:30.190Z,506.25
2018-07-01T08:00:30.166Z,421.88
2018-07-01T08:01:30.146Z,360.00
2018-07-01T08:02:30.161Z,371.25
2018-07-01T08:03:30.091Z,382.50
2018-07-01T08:04:30.080Z,388.13
2018-07-01T08:05:30.052Z,393.75
2018-07-01T08:06:30.029Z,410.63
2018-07-01T08:07:30.096Z,444.38
2018-07-01T08:08:30.022Z,489.38
2018-07-01T08:09:29.953Z,540.00
2018-07-01T08:10:29.933Z,551.25
2018-07-01T08:11:29.915Z,523.13
2018-07-01T08:12:29.888Z,517.50
2018-07-01T08:13:29.924Z,506.25
2018-07-01T08:14:29.841Z,438.75
2018-07-01T08:15:29.834Z,410.63
2018-07-01T08:16:29.802Z,354.38
2018-07-01T08:17:29.808Z,360.00
2018-07-01T08:18:29.798Z,365.63
2018-07-01T08:19:30.510Z,371.25
2018-07-01T08:20:29.735Z,376.88
2018-07-01T08:21:30.501Z,388.13
2018-07-01T08:22:29.655Z,393.75
2018-07-01T08:23:29.686Z,410.63
2018-07-01T08:24:29.655Z,427.50
2018-07-01T08:25:29.596Z,489.38
2018-07-01T08:26:29.560Z,585.00
2018-07-01T08:27:29.564Z,663.75
2018-07-01T08:28:29.526Z,686.25
2018-07-01T08:29:29.548Z,635.63
2018-07-01T08:30:29.476Z,596.25
2018-07-01T08:31:30.004Z,495.00
2018-07-01T08:32:29.440Z,489.38
2018-07-01T08:33:29.405Z,540.00
2018-07-01T08:34:29.451Z,624.38
2018-07-01T08:35:30.001Z,720.00
2018-07-01T08:36:29.376Z,742.50
2018-07-01T08:37:29.319Z,697.50
2018-07-01T08:38:29.289Z,669.38
2018-07-01T08:39:29.305Z,641.25
2018-07-01T08:40:30.007Z,556.88
2018-07-01T08:41:29.285Z,545.63
2018-07-01T08:42:29.215Z,540.00
2018-07-01T08:43:29.229Z,466.88
2018-07-01T08:44:29.170Z,466.88
2018-07-01T08:45:29.127Z,528.75
2018-07-01T08:46:29.148Z,590.63
2018-07-01T08:47:29.087Z,596.25
2018-07-01T08:48:29.061Z,506.25
2018-07-01T08:49:29.042Z,433.13
2018-07-01T08:50:29.069Z,388.13
2018-07-01T08:51:29.010Z,388.13
2018-07-01T08:52:29.019Z,405.00
2018-07-01T08:53:29.030Z,433.13
2018-07-01T08:54:29.912Z,433.13
2018-07-01T08:55:28.953Z,438.75
2018-07-01T08:56:28.883Z,438.75
2018-07-01T08:57:28.860Z,455.63
2018-07-01T08:58:28.846Z,466.88
2018-07-01T08:59:28.875Z,472.50
2018-07-01T09:00:28.844Z,511.88
2018-07-01T09:01:28.779Z,495.00
2018-07-01T09:02:28.750Z,523.13
2018-07-01T09:03:28.743Z,545.63
2018-07-01T09:04:28.759Z,562.50
2018-07-01T09:05:28.687Z,579.38
2018-07-01T09:06:28.715Z,607.50
2018-07-01T09:07:28.641Z,590.63
2018-07-01T09:08:28.678Z,568.13
2018-07-01T09:09:28.635Z,551.25
2018-07-01T09:10:28.581Z,573.75
2018-07-01T09:11:28.590Z,540.00
2018-07-01T09:12:28.618Z,495.00
2018-07-01T09:13:28.500Z,421.88
2018-07-01T09:14:28.480Z,393.75
2018-07-01T09:15:28.505Z,360.00
2018-07-01T09:16:28.486Z,365.63
2018-07-01T09:17:28.420Z,382.50
2018-07-01T09:18:28.388Z,399.38
2018-07-01T09:19:28.411Z,427.50
2018-07-01T09:20:28.346Z,444.38
2018-07-01T09:21:28.366Z,421.88
2018-07-01T09:22:28.920Z,399.38
2018-07-01T09:23:28.311Z,360.00
2018-07-01T09:24:28.265Z,331.88
2018-07-01T09:25:28.225Z,286.88
2018-07-01T09:26:28.252Z,275.63
2018-07-01T09:27:28.187Z,315.00
2018-07-01T09:28:28.202Z,292.50
2018-07-01T09:29:29.019Z,326.25
2018-07-01T09:30:28.112Z,331.88
2018-07-01T09:31:28.093Z,343.13
2018-07-01T09:32:28.572Z,365.63
2018-07-01T09:33:28.039Z,382.50
2018-07-01T09:34:28.040Z,393.75
2018-07-01T09:35:28.524Z,382.50
2018-07-01T09:36:27.967Z,376.88
2018-07-01T09:37:27.992Z,354.38
2018-07-01T09:38:27.922Z,343.13
2018-07-01T09:39:27.906Z,343.13
2018-07-01T09:40:28.096Z,354.38
2018-07-01T09:41:27.868Z,354.38
2018-07-01T09:42:27.860Z,376.88
2018-07-01T09:43:27.832Z,399.38
2018-07-01T09:44:27.785Z,438.75
2018-07-01T09:45:27.797Z,466.88
2018-07-01T09:46:27.792Z,483.75
2018-07-01T09:47:27.711Z,523.13
2018-07-01T09:48:27.760Z,562.50
2018-07-01T09:49:27.673Z,556.88
2018-07-01T09:50:27.711Z,534.38
2018-07-01T09:51:27.621Z,511.88
2018-07-01T09:52:27.598Z,495.00
2018-07-01T09:53:27.635Z,517.50
2018-07-01T09:54:27.563Z,556.88
2018-07-01T09:55:27.525Z,596.25
2018-07-01T09:56:27.513Z,618.75
2018-07-01T09:57:28.021Z,624.38
2018-07-01T09:58:27.503Z,641.25
2018-07-01T09:59:27.443Z,669.38
2018-07-01T10:00:27.418Z,686.25
2018-07-01T10:01:27.430Z,613.13
2018-07-01T10:02:27.375Z,551.25
2018-07-01T10:03:27.403Z,579.38
2018-07-01T10:04:28.027Z,652.50
2018-07-01T10:05:27.308Z,720.00
2018-07-01T10:06:27.336Z,765.00
2018-07-01T10:07:27.270Z,781.88
2018-07-01T10:08:27.265Z,725.63
2018-07-01T10:09:27.253Z,753.75
2018-07-01T10:10:27.205Z,765.00
2018-07-01T10:11:27.258Z,793.13
2018-07-01T10:12:27.171Z,781.88
2018-07-01T10:13:27.142Z,815.63
2018-07-01T10:14:27.162Z,793.13
2018-07-01T10:15:27.099Z,765.00
2018-07-01T10:16:27.103Z,765.00
2018-07-01T10:17:27.058Z,770.63
2018-07-01T10:18:27.091Z,793.13
2018-07-01T10:19:27.049Z,815.63
2018-07-01T10:20:27.012Z,798.75
2018-07-01T10:21:27.048Z,765.00
2018-07-01T10:22:26.977Z,736.88
2018-07-01T10:23:26.975Z,714.38
2018-07-01T10:24:26.920Z,720.00
2018-07-01T10:25:26.931Z,708.75
2018-07-01T10:26:26.970Z,725.63
2018-07-01T10:27:26.845Z,725.63
2018-07-01T10:28:26.866Z,720.00
2018-07-01T10:29:26.859Z,669.38
2018-07-01T10:30:26.786Z,630.00
2018-07-01T10:31:26.780Z,630.00
2018-07-01T10:32:27.455Z,641.25
2018-07-01T10:33:26.725Z,641.25
2018-07-01T10:34:27.172Z,658.13
2018-07-01T10:35:26.682Z,675.00
2018-07-01T10:36:26.666Z,686.25
2018-07-01T10:37:26.649Z,708.75
2018-07-01T10:38:26.629Z,708.75
2018-07-01T10:39:26.647Z,720.00
2018-07-01T10:40:26.586Z,748.13
2018-07-01T10:41:26.556Z,770.63
2018-07-01T10:42:26.540Z,759.38
2018-07-01T10:43:26.536Z,714.38
2018-07-01T10:44:26.639Z,646.88
2018-07-01T10:45:26.474Z,596.25
2018-07-01T10:46:26.452Z,568.13
2018-07-01T10:47:26.438Z,540.00
2018-07-01T10:48:26.413Z,500.63
2018-07-01T10:49:26.435Z,410.63
2018-07-01T10:50:26.369Z,393.75
2018-07-01T10:51:27.106Z,371.25
2018-07-01T10:52:26.334Z,320.63
2018-07-01T10:53:26.346Z,326.25
2018-07-01T10:54:26.279Z,354.38
2018-07-01T10:55:26.261Z,365.63
2018-07-01T10:56:26.299Z,399.38
2018-07-01T10:57:26.217Z,421.88
2018-07-01T10:58:26.193Z,421.88
2018-07-01T10:59:26.175Z,433.13
2018-07-01T11:00:26.149Z,421.88
2018-07-01T11:01:26.185Z,410.63
2018-07-01T11:02:26.105Z,410.63
2018-07-01T11:03:26.083Z,421.88
2018-07-01T11:04:26.060Z,410.63
2018-07-01T11:05:26.043Z,376.88
2018-07-01T11:06:26.110Z,348.75
2018-07-01T11:07:25.998Z,348.75
2018-07-01T11:08:25.969Z,331.88
2018-07-01T11:09:25.949Z,315.00
2018-07-01T11:10:25.929Z,298.13
2018-07-01T11:11:26.098Z,298.13
2018-07-01T11:12:25.925Z,343.13
2018-07-01T11:13:25.854Z,337.50
2018-07-01T11:14:25.838Z,331.88
2018-07-01T11:15:25.810Z,337.50
2018-07-01T11:16:26.542Z,348.75
2018-07-01T11:17:25.788Z,365.63
2018-07-01T11:18:25.984Z,354.38
2018-07-01T11:19:25.723Z,376.88
2018-07-01T11:20:25.852Z,376.88
2018-07-01T11:21:26.547Z,416.25
2018-07-01T11:22:25.677Z,433.13
2018-07-01T11:23:25.630Z,444.38
2018-07-01T11:24:25.615Z,466.88
2018-07-01T11:25:25.584Z,450.00
2018-07-01T11:26:26.552Z,478.13
2018-07-01T11:27:25.605Z,517.50
2018-07-01T11:28:25.526Z,495.00
2018-07-01T11:29:25.516Z,568.13
2018-07-01T11:30:25.476Z,635.63
2018-07-01T11:31:25.454Z,697.50
2018-07-01T11:32:25.481Z,708.75
2018-07-01T11:33:25.407Z,731.25
2018-07-01T11:34:25.391Z,748.13
2018-07-01T11:35:25.377Z,759.38
2018-07-01T11:36:25.340Z,753.75
2018-07-01T11:37:25.369Z,742.50
2018-07-01T11:38:25.307Z,731.25
2018-07-01T11:39:25.298Z,753.75
2018-07-01T11:40:25.261Z,753.75
2018-07-01T11:41:25.237Z,658.13
2018-07-01T11:42:25.273Z,613.13
2018-07-01T11:43:25.202Z,551.25
2018-07-01T11:44:25.192Z,545.63
2018-07-01T11:45:25.152Z,511.88
2018-07-01T11:46:25.131Z,483.75
2018-07-01T11:47:25.163Z,500.63
2018-07-01T11:48:25.131Z,528.75
2018-07-01T11:49:25.068Z,562.50
2018-07-01T11:50:25.048Z,573.75
2018-07-01T11:51:25.085Z,601.88
2018-07-01T11:52:25.089Z,601.88
2018-07-01T11:53:25.006Z,551.25
2018-07-01T11:54:25.012Z,506.25
2018-07-01T11:55:24.948Z,444.38
2018-07-01T11:56:25.466Z,405.00
2018-07-01T11:57:25.021Z,393.75
2018-07-01T11:58:24.875Z,399.38
2018-07-01T11:59:24.914Z,427.50
2018-07-01T12:00:24.841Z,455.63
2018-07-01T12:01:24.820Z,517.50
2018-07-01T12:02:24.866Z,562.50
2018-07-01T12:03:24.786Z,607.50
2018-07-01T12:04:24.809Z,596.25
2018-07-01T12:05:24.778Z,590.63
2018-07-01T12:06:24.720Z,545.63
2018-07-01T12:07:24.684Z,511.88
2018-07-01T12:08:24.670Z,444.38
2018-07-01T12:09:24.691Z,421.88
2018-07-01T12:10:24.682Z,405.00
2018-07-01T12:11:24.626Z,393.75
2018-07-01T12:12:24.588Z,393.75
2018-07-01T12:13:24.564Z,438.75
2018-07-01T12:14:24.550Z,444.38
2018-07-01T12:15:24.582Z,444.38
2018-07-01T12:16:24.544Z,444.38
2018-07-01T12:17:24.470Z,427.50
2018-07-01T12:18:24.454Z,466.88
2018-07-01T12:19:24.535Z,506.25
2018-07-01T12:20:24.412Z,562.50
2018-07-01T12:21:24.441Z,590.63
2018-07-01T12:22:24.382Z,618.75
2018-07-01T12:23:24.464Z,646.88
2018-07-01T12:24:24.337Z,590.63
2018-07-01T12:25:24.306Z,534.38
2018-07-01T12:26:24.324Z,466.88
2018-07-01T12:27:24.263Z,421.88
2018-07-01T12:28:24.286Z,388.13
2018-07-01T12:29:24.245Z,382.50
2018-07-01T12:30:24.268Z,405.00
2018-07-01T12:31:24.182Z,450.00
2018-07-01T12:32:24.218Z,534.38
2018-07-01T12:33:24.227Z,618.75
2018-07-01T12:34:24.123Z,675.00
2018-07-01T12:35:24.098Z,708.75
2018-07-01T12:36:24.089Z,753.75
2018-07-01T12:37:24.122Z,725.63
2018-07-01T12:38:24.293Z,669.38
2018-07-01T12:39:24.009Z,658.13
2018-07-01T12:40:23.997Z,658.13